Time;durP1;ratioP1;P1;durP2;ratioP2;P2;SDS_P1;SDS_P2;PMS_P1;PMS_P2;Temp;Humidity;BMP_temperature;BMP_pressure;BME280_temperature;BME280_humidity;BME280_pressure;Samples;Min_cycle;Max_cycle;Signal;HPM_P1;HPM_P2
2023/04/14 06:31:42;;;;;;;8.88;3.33;;;6.50;99.90;;;;;;6838247;23;20092;-77
2023/04/14 06:34:44;;;;;;;10.18;3.25;;;6.60;99.90;;;;;;6199977;28;20053;-76
2023/04/14 06:37:46;;;;;;;9.18;3.03;;;6.50;99.90;;;;;;6203203;28;20050;-76
2023/04/14 06:40:47;;;;;;;6.82;2.92;;;6.50;99.90;;;;;;6202475;28;20046;-78
2023/04/14 06:43:49;;;;;;;9.57;2.90;;;6.60;99.90;;;;;;6202816;28;20613;-77
2023/04/14 06:46:53;;;;;;;8.57;3.05;;;6.70;99.90;;;;;;6203457;28;20057;-78
2023/04/14 06:49:55;;;;;;;6.75;2.90;;;6.70;99.90;;;;;;6203856;28;20503;-75
2023/04/14 06:52:57;;;;;;;9.65;2.88;;;6.80;99.90;;;;;;6203511;28;20077;-77
2023/04/14 06:55:59;;;;;;;10.27;2.85;;;6.80;99.90;;;;;;6205563;28;20058;-77
2023/04/14 06:59:01;;;;;;;9.38;2.95;;;6.90;99.90;;;;;;6203172;28;20489;-76
2023/04/14 07:02:04;;;;;;;12.52;3.47;;;7.00;99.90;;;;;;6203401;28;20054;-79
2023/04/14 07:05:07;;;;;;;9.88;2.60;;;7.10;99.90;;;;;;6201406;28;20094;-78
2023/04/14 07:08:09;;;;;;;10.50;3.15;;;7.10;99.90;;;;;;6203245;28;20054;-80
2023/04/14 07:11:11;;;;;;;9.98;2.83;;;7.10;99.90;;;;;;6202959;28;20050;-77
2023/04/14 07:14:14;;;;;;;8.70;2.45;;;7.10;99.90;;;;;;6203183;28;20510;-74
2023/04/14 07:17:17;;;;;;;10.15;2.65;;;7.20;99.90;;;;;;6201460;28;20154;-78
2023/04/14 07:20:19;;;;;;;6.90;2.65;;;7.20;99.90;;;;;;6202990;28;20046;-77
2023/04/14 07:23:22;;;;;;;6.32;2.13;;;7.10;99.90;;;;;;6202818;28;20053;-78
2023/04/14 07:26:23;;;;;;;8.50;2.07;;;7.20;99.90;;;;;;6203195;28;20061;-79
2023/04/14 07:29:28;;;;;;;8.05;2.40;;;7.40;99.90;;;;;;6202525;28;20440;-76
2023/04/14 07:32:31;;;;;;;9.68;2.05;;;7.40;99.90;;;;;;6183759;28;20055;-78
2023/04/14 07:35:33;;;;;;;4.80;1.48;;;7.40;99.90;;;;;;6178512;28;20133;-77
2023/04/14 07:38:35;;;;;;;8.55;1.92;;;7.40;99.90;;;;;;6178295;28;20051;-77
2023/04/14 07:41:37;;;;;;;5.40;1.80;;;7.50;99.90;;;;;;6178185;28;20502;-77
2023/04/14 07:44:39;;;;;;;6.85;1.70;;;7.60;99.90;;;;;;6161508;28;20044;-77
2023/04/14 07:47:42;;;;;;;8.98;2.15;;;7.70;99.90;;;;;;6153874;29;20051;-77
2023/04/14 07:50:44;;;;;;;6.20;1.70;;;7.80;99.90;;;;;;6153967;29;20051;-78
2023/04/14 07:53:46;;;;;;;6.90;2.10;;;7.90;99.60;;;;;;6152701;28;20043;-78
2023/04/14 07:56:48;;;;;;;6.18;1.90;;;7.90;99.40;;;;;;6154085;29;20054;-79
2023/04/14 07:59:50;;;;;;;6.38;1.67;;;8.00;99.10;;;;;;6173102;28;20047;-80
2023/04/14 08:02:53;;;;;;;7.50;2.00;;;8.00;98.10;;;;;;6177773;28;20129;-77
2023/04/14 08:05:56;;;;;;;6.90;2.38;;;8.10;98.50;;;;;;6177709;28;20042;-78
2023/04/14 08:08:58;;;;;;;5.97;1.70;;;8.30;98.50;;;;;;6177220;28;20055;-80
2023/04/14 08:12:00;;;;;;;8.70;2.00;;;8.30;98.20;;;;;;6177234;28;20073;-81
2023/04/14 08:15:02;;;;;;;5.35;1.80;;;8.40;98.10;;;;;;6154084;28;20058;-79
2023/04/14 08:18:05;;;;;;;9.80;2.20;;;8.40;98.30;;;;;;6153538;29;20043;-79
2023/04/14 08:21:07;;;;;;;8.43;1.80;;;8.50;98.20;;;;;;6153190;29;20054;-77
2023/04/14 08:24:09;;;;;;;6.18;1.60;;;8.50;98.60;;;;;;6153052;29;20047;-77
2023/04/14 08:27:11;;;;;;;5.70;1.83;;;8.60;98.30;;;;;;6154143;28;20059;-76
2023/04/14 08:30:13;;;;;;;4.95;1.75;;;8.60;97.90;;;;;;6152899;29;20057;-76
2023/04/14 08:33:17;;;;;;;7.25;1.75;;;8.70;97.90;;;;;;6153037;28;20062;-77
2023/04/14 08:36:19;;;;;;;9.20;1.77;;;8.70;97.50;;;;;;6153404;29;20527;-76
2023/04/14 08:39:21;;;;;;;6.03;1.85;;;8.80;97.40;;;;;;6152944;29;20389;-77
2023/04/14 08:42:22;;;;;;;6.80;1.88;;;8.80;97.80;;;;;;6153979;28;20051;-77
2023/04/14 08:45:25;;;;;;;7.13;1.80;;;9.00;97.70;;;;;;6152503;29;20051;-76
2023/04/14 08:48:30;;;;;;;6.32;1.80;;;9.00;97.40;;;;;;6152576;29;20058;-77
2023/04/14 08:51:36;;;;;;;6.38;1.90;;;9.00;97.10;;;;;;6152743;29;20481;-80
2023/04/14 08:54:40;;;;;;;7.68;2.17;;;9.10;97.20;;;;;;6162044;28;20109;-78
2023/04/14 08:57:45;;;;;;;6.65;1.85;;;9.10;97.10;;;;;;6176601;28;20055;-77
2023/04/14 09:00:47;;;;;;;6.63;1.90;;;9.20;97.00;;;;;;6176427;28;20057;-76
2023/04/14 09:03:51;;;;;;;6.97;2.00;;;9.30;97.30;;;;;;6175928;28;20397;-78
2023/04/14 09:06:54;;;;;;;7.30;1.73;;;9.40;96.90;;;;;;6176849;28;20051;-76
2023/04/14 09:09:57;;;;;;;10.23;1.50;;;9.50;97.30;;;;;;6162039;28;20055;-77
2023/04/14 09:13:00;;;;;;;7.28;2.13;;;9.50;96.90;;;;;;6152402;29;20416;-76
2023/04/14 09:16:02;;;;;;;6.95;1.90;;;9.50;96.80;;;;;;6152612;29;20477;-78
2023/04/14 09:19:06;;;;;;;5.78;1.77;;;9.60;96.80;;;;;;6152495;29;20405;-77
2023/04/14 09:22:07;;;;;;;;;;;9.70;96.50;;;;;;6159795;28;20046;-78
2023/04/14 09:25:10;;;;;;;5.72;1.88;;;9.70;96.80;;;;;;6190790;28;19922;-78
2023/04/14 09:28:12;;;;;;;7.20;1.83;;;9.90;96.60;;;;;;6187736;28;20066;-76
2023/04/14 09:31:14;;;;;;;6.10;1.83;;;9.80;96.30;;;;;;6178870;28;20784;-79
2023/04/14 09:34:20;;;;;;;8.15;2.00;;;9.90;95.50;;;;;;6155269;28;20071;-77
2023/04/14 09:37:22;;;;;;;5.60;1.77;;;10.10;95.30;;;;;;6151346;29;20101;-79
2023/04/14 09:40:31;;;;;;;9.60;2.08;;;10.10;95.80;;;;;;6151505;29;20062;-78
2023/04/14 09:43:33;;;;;;;6.00;1.67;;;10.20;95.10;;;;;;6151333;29;20485;-77
2023/04/14 09:46:35;;;;;;;7.65;2.00;;;10.20;95.80;;;;;;6152308;28;20481;-78
2023/04/14 09:49:56;;;;;;;7.28;2.20;;;10.30;95.70;;;;;;6151306;29;20086;-80
2023/04/14 09:52:58;;;;;;;7.65;2.22;;;10.40;95.30;;;;;;6151398;29;20509;-79
2023/04/14 09:56:02;;;;;;;8.85;1.95;;;10.40;96.00;;;;;;6168623;28;20042;-78
2023/04/14 09:59:04;;;;;;;8.60;2.22;;;10.60;95.00;;;;;;6175285;28;20057;-78
2023/04/14 10:02:08;;;;;;;8.63;1.80;;;10.70;94.80;;;;;;6165903;28;20046;-80
2023/04/14 10:05:11;;;;;;;9.55;2.10;;;10.80;95.00;;;;;;6174126;28;20057;-78
2023/04/14 10:08:13;;;;;;;10.77;2.35;;;10.90;94.30;;;;;;6168916;28;20152;-79
2023/04/14 10:11:18;;;;;;;10.55;2.38;;;11.00;93.80;;;;;;6174040;28;20046;-81
2023/04/14 10:14:20;;;;;;;8.10;2.25;;;11.00;93.30;;;;;;6173037;28;20059;-78
2023/04/14 10:17:22;;;;;;;9.07;2.10;;;11.00;93.30;;;;;;6177648;28;20407;-82
2023/04/14 10:20:25;;;;;;;9.40;2.30;;;11.10;93.50;;;;;;6180141;28;20503;-78
2023/04/14 10:23:27;;;;;;;7.45;1.73;;;11.30;93.00;;;;;;6179884;28;20134;-79
2023/04/14 10:26:30;;;;;;;6.68;2.00;;;11.40;92.90;;;;;;6180194;28;20101;-79
2023/04/14 10:29:32;;;;;;;9.20;2.13;;;11.50;93.20;;;;;;6179599;28;20388;-79
2023/04/14 10:32:36;;;;;;;7.30;1.83;;;11.60;93.60;;;;;;6179424;28;20409;-76
2023/04/14 10:35:42;;;;;;;9.35;2.63;;;11.50;93.40;;;;;;6179889;28;20047;-77
2023/04/14 10:38:46;;;;;;;24.50;8.60;;;11.70;93.70;;;;;;6179606;28;20051;-78
2023/04/14 10:41:50;;;;;;;11.32;3.33;;;11.90;92.60;;;;;;6179350;28;20400;-78
2023/04/14 10:45:05;;;;;;;9.15;2.50;;;12.00;92.70;;;;;;6179281;28;20042;-79
2023/04/14 10:48:10;;;;;;;9.80;2.05;;;12.10;90.80;;;;;;6179119;28;20042;-77
2023/04/14 10:51:17;;;;;;;7.78;2.05;;;12.10;91.10;;;;;;6179497;28;20050;-78
2023/04/14 10:54:19;;;;;;;6.78;2.05;;;12.20;90.00;;;;;;6179106;28;20047;-77
2023/04/14 10:57:22;;;;;;;7.45;1.83;;;12.30;90.40;;;;;;6179094;28;20046;-78
2023/04/14 11:00:27;;;;;;;6.68;1.77;;;12.40;87.60;;;;;;6178953;28;20231;-79
2023/04/14 11:03:32;;;;;;;7.43;1.70;;;12.40;85.90;;;;;;6179334;28;20042;-76
2023/04/14 11:06:53;;;;;;;8.90;1.80;;;12.40;86.70;;;;;;6178898;28;20057;-78
2023/04/14 11:10:03;;;;;;;6.10;1.88;;;12.40;85.50;;;;;;6178624;28;20051;-79
2023/04/14 11:13:08;;;;;;;8.68;2.30;;;12.40;85.10;;;;;;6178542;28;20042;-79
2023/04/14 11:16:11;;;;;;;7.68;1.95;;;12.60;89.00;;;;;;6178032;28;20061;-79
2023/04/14 11:19:14;;;;;;;9.10;2.13;;;12.70;88.60;;;;;;6178530;28;20047;-79
2023/04/14 11:22:38;;;;;;;6.82;1.83;;;12.80;86.90;;;;;;6178501;28;20054;-78
2023/04/14 11:25:40;;;;;;;7.75;1.95;;;12.90;84.30;;;;;;6178470;28;20058;-78
2023/04/14 11:28:44;;;;;;;6.53;1.95;;;12.80;82.90;;;;;;6178179;28;20054;-78
2023/04/14 11:31:46;;;;;;;5.88;1.52;;;12.70;82.10;;;;;;6178153;28;20416;-77
2023/04/14 11:34:48;;;;;;;6.63;2.00;;;12.90;84.10;;;;;;6178076;28;20507;-79
2023/04/14 11:37:54;;;;;;;7.38;1.92;;;13.10;84.10;;;;;;6178152;28;20046;-77
2023/04/14 11:40:56;;;;;;;7.00;2.08;;;13.20;80.60;;;;;;6178112;28;20046;-77
2023/04/14 11:43:59;;;;;;;6.28;1.52;;;13.20;80.40;;;;;;6178080;28;20058;-78
2023/04/14 11:47:01;;;;;;;7.72;1.70;;;13.20;79.40;;;;;;6178125;28;20054;-79
2023/04/14 11:50:04;;;;;;;6.95;1.85;;;12.90;78.60;;;;;;6177507;28;20055;-77
2023/04/14 11:53:09;;;;;;;7.30;1.92;;;12.90;78.40;;;;;;6170769;28;20137;-77
2023/04/14 11:56:11;;;;;;;7.00;2.15;;;12.80;74.50;;;;;;6176227;28;20432;-76
2023/04/14 11:59:13;;;;;;;7.07;1.83;;;12.90;75.10;;;;;;6171241;28;20102;-79
2023/04/14 12:02:17;;;;;;;7.32;1.70;;;13.10;75.50;;;;;;6168816;28;20054;-80
2023/04/14 12:05:24;;;;;;;8.52;1.80;;;13.20;77.90;;;;;;6153664;29;20047;-79
2023/04/14 12:08:29;;;;;;;6.38;1.70;;;13.40;77.80;;;;;;6164763;28;20055;-79
2023/04/14 12:11:31;;;;;;;6.90;1.98;;;13.60;78.90;;;;;;6175251;28;20054;-79
2023/04/14 12:14:33;;;;;;;6.40;1.65;;;13.90;76.20;;;;;;6162779;28;20473;-79
2023/04/14 12:17:37;;;;;;;8.73;1.73;;;14.20;76.60;;;;;;6173860;28;20054;-77
2023/04/14 12:20:42;;;;;;;6.03;1.60;;;14.30;75.00;;;;;;6168328;28;20050;-79
2023/04/14 12:23:48;;;;;;;7.53;1.83;;;14.30;70.90;;;;;;6154604;28;20047;-79
2023/04/14 12:26:50;;;;;;;6.63;1.90;;;14.20;73.20;;;;;;6175798;28;20043;-78
2023/04/14 12:29:52;;;;;;;8.32;2.00;;;14.00;74.00;;;;;;6174566;28;20071;-78
2023/04/14 12:32:54;;;;;;;8.60;2.00;;;14.10;73.30;;;;;;6186448;28;20385;-78
2023/04/14 12:36:01;;;;;;;6.88;1.50;;;13.90;73.20;;;;;;6191685;28;20054;-77
2023/04/14 12:39:08;;;;;;;6.50;1.77;;;14.40;71.20;;;;;;6197260;28;20077;-79
2023/04/14 12:42:10;;;;;;;6.30;1.70;;;14.40;72.50;;;;;;6191142;28;20484;-80
2023/04/14 12:45:12;;;;;;;5.82;1.33;;;14.60;70.30;;;;;;6198409;28;20050;-79
2023/04/14 12:48:16;;;;;;;5.40;1.75;;;14.80;70.30;;;;;;6197967;28;20042;-76
2023/04/14 12:51:19;;;;;;;4.93;1.42;;;14.80;69.60;;;;;;6198142;28;20054;-78
2023/04/14 12:54:23;;;;;;;6.75;1.55;;;15.20;68.10;;;;;;6195969;28;20058;-81
2023/04/14 12:57:26;;;;;;;7.10;1.80;;;15.60;67.60;;;;;;6196749;28;20054;-75
2023/04/14 13:00:28;;;;;;;6.50;1.60;;;15.70;69.50;;;;;;6197225;28;20058;-78
2023/04/14 13:03:41;;;;;;;7.47;1.70;;;15.60;69.50;;;;;;6197791;28;20054;-78
2023/04/14 13:06:43;;;;;;;7.22;2.00;;;15.50;67.50;;;;;;6196439;28;20491;-78
2023/04/14 13:09:46;;;;;;;7.22;2.22;;;14.80;67.90;;;;;;6209526;28;20050;-81
2023/04/14 13:12:48;;;;;;;8.43;1.98;;;15.00;68.30;;;;;;6207466;28;20061;-79
2023/04/14 13:15:50;;;;;;;6.30;1.60;;;15.20;67.50;;;;;;6208482;28;20392;-80
2023/04/14 13:18:52;;;;;;;7.82;2.08;;;15.30;67.50;;;;;;6175225;28;20051;-78
2023/04/14 13:21:54;;;;;;;4.63;1.50;;;15.40;66.40;;;;;;6181220;28;20039;-79
2023/04/14 13:24:59;;;;;;;6.22;1.40;;;15.70;66.80;;;;;;6173541;28;20054;-77
2023/04/14 13:28:01;;;;;;;6.10;1.60;;;15.70;67.20;;;;;;6174862;28;20053;-79
2023/04/14 13:31:03;;;;;;;8.02;1.80;;;15.90;61.50;;;;;;6170297;28;20065;-77
2023/04/14 13:34:05;;;;;;;6.55;1.45;;;16.40;61.40;;;;;;6155110;28;20050;-78
2023/04/14 13:37:06;;;;;;;6.13;1.80;;;16.50;63.50;;;;;;6161018;28;20051;-79
2023/04/14 13:40:11;;;;;;;8.13;1.90;;;16.90;60.50;;;;;;6172926;28;20058;-78
2023/04/14 13:43:17;;;;;;;5.90;1.55;;;17.00;62.40;;;;;;6172106;28;20062;-78
2023/04/14 13:46:19;;;;;;;5.93;1.60;;;16.90;61.60;;;;;;6165327;28;20089;-79
2023/04/14 13:49:21;;;;;;;5.88;1.30;;;16.80;60.90;;;;;;6159419;28;20687;-76
2023/04/14 13:52:23;;;;;;;4.90;1.50;;;16.80;61.20;;;;;;6170618;28;20051;-76
2023/04/14 13:55:26;;;;;;;5.82;1.70;;;16.90;58.50;;;;;;6172111;28;20073;-77
2023/04/14 13:58:29;;;;;;;4.32;1.33;;;16.80;59.40;;;;;;6172239;28;20396;-78
2023/04/14 14:01:31;;;;;;;5.60;1.40;;;17.30;60.00;;;;;;6165762;28;20058;-78
2023/04/14 14:04:35;;;;;;;7.50;1.60;;;17.60;58.00;;;;;;6172687;28;20144;-79
2023/04/14 14:07:38;;;;;;;7.55;1.65;;;17.80;60.00;;;;;;6161900;28;20062;-80
2023/04/14 14:10:41;;;;;;;6.13;1.53;;;18.00;56.30;;;;;;6166462;28;20055;-78
2023/04/14 14:13:43;;;;;;;6.07;1.60;;;18.10;54.80;;;;;;6159804;28;20668;-79
2023/04/14 14:16:45;;;;;;;5.35;1.52;;;18.40;55.80;;;;;;6163154;28;20051;-78
2023/04/14 14:19:47;;;;;;;4.82;1.38;;;18.70;52.80;;;;;;6166321;28;20602;-80
2023/04/14 14:22:50;;;;;;;6.43;1.60;;;19.30;54.80;;;;;;6167464;28;20078;-76
2023/04/14 14:25:54;;;;;;;5.55;1.65;;;19.20;51.80;;;;;;6163527;28;20048;-78
2023/04/14 14:28:56;;;;;;;4.93;1.25;;;19.30;53.20;;;;;;6160761;28;20055;-78
2023/04/14 14:31:57;;;;;;;5.88;1.30;;;19.10;50.80;;;;;;6160783;28;20433;-78
2023/04/14 14:35:01;;;;;;;6.68;1.45;;;19.50;51.80;;;;;;6165536;28;20055;-80
2023/04/14 14:38:03;;;;;;;5.32;1.55;;;19.90;49.30;;;;;;6167407;28;20126;-78
2023/04/14 14:41:06;;;;;;;5.65;1.30;;;20.50;51.40;;;;;;6147770;28;20421;-77
2023/04/14 14:44:08;;;;;;;6.05;1.40;;;20.80;49.70;;;;;;6158954;28;20047;-76
2023/04/14 14:47:10;;;;;;;5.18;1.45;;;20.60;46.60;;;;;;6159106;28;20488;-77
2023/04/14 14:50:12;;;;;;;5.70;1.48;;;20.60;48.40;;;;;;6158817;28;20515;-78
2023/04/14 14:53:14;;;;;;;6.53;1.77;;;21.40;47.00;;;;;;6157777;28;20054;-78
2023/04/14 14:56:18;;;;;;;5.55;1.65;;;22.70;45.70;;;;;;6165003;28;20065;-79
2023/04/14 14:59:19;;;;;;;4.28;1.50;;;23.80;44.20;;;;;;6164324;28;20050;-80
2023/04/14 15:02:22;;;;;;;4.97;1.40;;;23.90;42.20;;;;;;6164680;28;20053;-79
2023/04/14 15:05:24;;;;;;;4.63;1.55;;;25.40;40.00;;;;;;6165423;28;20424;-77
2023/04/14 15:08:26;;;;;;;4.35;1.33;;;27.60;36.50;;;;;;6167840;28;20484;-79
2023/04/14 15:11:30;;;;;;;5.97;1.48;;;31.60;34.10;;;;;;6169519;28;20057;-80
2023/04/14 15:14:31;;;;;;;3.55;1.30;;;33.80;31.90;;;;;;6168299;28;20047;-78
2023/04/14 15:17:34;;;;;;;4.32;1.30;;;35.30;30.80;;;;;;6149944;28;20058;-77
2023/04/14 15:20:36;;;;;;;4.40;1.40;;;36.50;29.30;;;;;;6155037;28;20458;-80
2023/04/14 15:23:39;;;;;;;5.15;1.50;;;36.70;29.20;;;;;;6156516;28;20058;-77
2023/04/14 15:26:43;;;;;;;4.18;1.25;;;36.40;28.70;;;;;;6173077;28;20050;-76
2023/04/14 15:29:45;;;;;;;4.30;1.17;;;35.80;28.80;;;;;;6175539;28;20051;-79
2023/04/14 15:32:46;;;;;;;4.57;1.30;;;34.50;28.60;;;;;;6168814;28;20058;-78
2023/04/14 15:35:48;;;;;;;5.93;1.60;;;35.10;29.60;;;;;;6166852;28;20047;-77
2023/04/14 15:38:50;;;;;;;5.30;1.48;;;33.50;28.80;;;;;;6169605;28;20054;-77
2023/04/14 15:41:53;;;;;;;5.38;1.63;;;34.00;29.20;;;;;;6166806;28;20433;-76
2023/04/14 15:44:55;;;;;;;3.70;1.30;;;34.30;28.80;;;;;;6177781;28;20050;-77
2023/04/14 15:47:57;;;;;;;;;;;34.70;28.90;;;;;;6180039;28;20046;-79
2023/04/14 15:50:59;;;;;;;4.82;1.30;;;35.10;29.10;;;;;;6158109;28;19933;-78
2023/04/14 15:54:00;;;;;;;5.53;1.38;;;35.40;28.50;;;;;;6168853;28;20047;-77
2023/04/14 15:57:04;;;;;;;4.03;1.27;;;35.30;28.70;;;;;;6173868;28;20077;-77
2023/04/14 16:00:07;;;;;;;3.78;1.20;;;35.60;28.30;;;;;;6172566;28;20055;-79
2023/04/14 16:03:11;;;;;;;4.97;1.50;;;34.20;28.30;;;;;;6165182;28;20510;-78
2023/04/14 16:06:13;;;;;;;3.67;1.23;;;33.20;29.30;;;;;;6174803;28;20061;-79
2023/04/14 16:09:14;;;;;;;4.35;1.33;;;32.80;28.60;;;;;;6166901;28;20048;-78
2023/04/14 16:12:17;;;;;;;4.32;1.27;;;32.50;29.10;;;;;;6166787;28;20047;-78
2023/04/14 16:15:19;;;;;;;6.40;1.50;;;32.20;28.90;;;;;;6165701;28;20135;-78
2023/04/14 16:18:21;;;;;;;6.43;1.40;;;33.00;28.80;;;;;;6162155;28;20497;-78
2023/04/14 16:21:23;;;;;;;;;;;32.70;28.80;;;;;;6160678;28;20062;-78
2023/04/14 16:24:25;;;;;;;5.47;1.30;;;32.30;29.10;;;;;;6150206;29;19926;-78
2023/04/14 16:27:28;;;;;;;3.88;1.33;;;31.50;29.40;;;;;;6154653;28;20055;-78
2023/04/14 16:30:31;;;;;;;4.88;1.50;;;31.10;29.40;;;;;;6163999;28;20055;-79
2023/04/14 16:33:33;;;;;;;4.25;1.30;;;28.40;30.40;;;;;;6173583;28;20042;-78
2023/04/14 16:36:35;;;;;;;4.83;1.40;;;28.10;30.20;;;;;;6170474;28;20043;-76
2023/04/14 16:39:37;;;;;;;3.80;1.20;;;28.00;29.80;;;;;;6173752;28;20749;-80
2023/04/14 16:42:40;;;;;;;4.65;1.30;;;27.90;30.90;;;;;;6173752;28;20055;-76
2023/04/14 16:45:41;;;;;;;4.35;1.23;;;27.50;31.80;;;;;;6168895;28;20492;-78
2023/04/14 16:48:43;;;;;;;4.72;1.30;;;26.80;30.80;;;;;;6171465;28;20046;-78
2023/04/14 16:51:45;;;;;;;3.95;1.30;;;26.20;32.00;;;;;;6172828;28;20066;-78
2023/04/14 16:54:47;;;;;;;4.82;1.58;;;25.10;32.20;;;;;;6168913;28;20051;-76
2023/04/14 16:57:50;;;;;;;4.70;1.30;;;23.90;33.60;;;;;;6170950;28;20057;-79
2023/04/14 17:00:52;;;;;;;3.97;1.60;;;23.30;34.20;;;;;;6172850;28;20057;-79
2023/04/14 17:03:54;;;;;;;5.18;1.30;;;23.40;34.60;;;;;;6173063;28;20058;-79
2023/04/14 17:06:56;;;;;;;4.60;1.33;;;23.10;35.20;;;;;;6171941;28;20058;-79
2023/04/14 17:09:58;;;;;;;4.38;1.40;;;22.40;35.90;;;;;;6171966;28;20104;-78
2023/04/14 17:13:01;;;;;;;7.47;2.70;;;21.20;37.20;;;;;;6168459;28;20136;-79
2023/04/14 17:16:03;;;;;;;5.45;1.80;;;20.40;38.20;;;;;;6162928;28;20429;-78
2023/04/14 17:19:05;;;;;;;4.75;1.85;;;19.90;39.10;;;;;;6149043;29;20043;-79
2023/04/14 17:22:07;;;;;;;5.05;1.92;;;19.50;39.80;;;;;;6161673;28;20043;-79
2023/04/14 17:25:10;;;;;;;4.43;1.45;;;19.20;40.10;;;;;;6155994;28;20058;-78
2023/04/14 17:28:14;;;;;;;4.63;1.50;;;18.50;39.90;;;;;;6171430;28;20050;-79
2023/04/14 17:31:16;;;;;;;5.78;1.67;;;18.40;41.80;;;;;;6178358;28;20054;-76
2023/04/14 17:34:19;;;;;;;3.63;1.30;;;18.10;41.40;;;;;;6164498;28;20469;-77
2023/04/14 17:37:21;;;;;;;4.85;1.20;;;17.90;41.40;;;;;;6148407;29;20051;-77
2023/04/14 17:40:24;;;;;;;4.43;1.40;;;17.70;41.60;;;;;;6162953;28;20051;-76
2023/04/14 17:43:27;;;;;;;5.70;1.40;;;17.50;42.10;;;;;;6172282;28;20483;-77
2023/04/14 17:46:32;;;;;;;;;;;17.30;41.80;;;;;;6172909;28;20058;-75
2023/04/14 17:49:34;;;;;;;4.95;1.50;;;17.10;42.30;;;;;;6172816;28;19922;-77
2023/04/14 17:52:36;;;;;;;6.07;1.65;;;17.00;43.00;;;;;;6168119;28;20051;-76
2023/04/14 17:55:38;;;;;;;6.07;1.65;;;16.80;43.60;;;;;;6162643;28;20513;-78
2023/04/14 17:58:41;;;;;;;4.97;1.60;;;16.70;45.00;;;;;;6172929;28;20054;-75
2023/04/14 18:01:43;;;;;;;4.60;1.70;;;16.60;46.60;;;;;;6171688;28;20047;-80
2023/04/14 18:04:46;;;;;;;6.95;1.77;;;16.50;46.30;;;;;;6171273;28;20050;-80
2023/04/14 18:07:48;;;;;;;6.95;1.85;;;16.40;48.40;;;;;;6173116;28;20047;-82
2023/04/14 18:10:50;;;;;;;5.30;1.60;;;16.30;48.50;;;;;;6171354;28;20098;-80
2023/04/14 18:13:53;;;;;;;4.65;1.50;;;16.20;49.90;;;;;;6170763;28;20047;-79
2023/04/14 18:16:56;;;;;;;5.60;1.80;;;16.00;51.10;;;;;;6172398;28;20475;-80
2023/04/14 18:19:58;;;;;;;5.35;1.35;;;15.80;50.40;;;;;;6157841;28;20054;-81
2023/04/14 18:23:00;;;;;;;4.93;1.63;;;15.60;51.90;;;;;;6148393;29;20047;-79
2023/04/14 18:26:02;;;;;;;7.63;1.70;;;15.60;53.10;;;;;;6169559;28;20101;-82
2023/04/14 18:29:06;;;;;;;6.95;1.65;;;15.60;54.40;;;;;;6173035;28;20051;-81
2023/04/14 18:32:08;;;;;;;5.35;1.40;;;15.40;54.10;;;;;;6163746;28;20066;-77
2023/04/14 18:35:10;;;;;;;5.30;1.40;;;15.20;53.60;;;;;;6169002;28;20087;-76
2023/04/14 18:38:12;;;;;;;4.83;1.47;;;15.20;53.20;;;;;;6175791;28;20051;-78
2023/04/14 18:41:14;;;;;;;4.65;1.48;;;15.10;53.70;;;;;;6177449;28;20047;-78
2023/04/14 18:44:18;;;;;;;5.47;1.50;;;15.00;53.90;;;;;;6175785;28;20047;-78
2023/04/14 18:47:21;;;;;;;4.88;1.38;;;14.80;54.50;;;;;;6162703;28;20055;-78
2023/04/14 18:50:22;;;;;;;4.45;1.40;;;14.70;55.70;;;;;;6151651;29;20051;-77
2023/04/14 18:53:24;;;;;;;4.50;1.38;;;14.50;56.20;;;;;;6152428;28;20054;-76
2023/04/14 18:56:27;;;;;;;7.40;2.08;;;14.50;56.70;;;;;;6173833;28;20051;-77
2023/04/14 18:59:31;;;;;;;9.30;3.03;;;14.30;55.90;;;;;;6193279;28;20078;-74
2023/04/14 19:02:34;;;;;;;7.75;3.45;;;13.80;55.70;;;;;;6175771;28;20403;-76
2023/04/14 19:05:36;;;;;;;8.25;3.60;;;13.70;57.10;;;;;;6174382;28;20062;-77
2023/04/14 19:08:37;;;;;;;8.25;3.33;;;13.70;57.80;;;;;;6175448;28;20051;-77
2023/04/14 19:11:39;;;;;;;8.70;3.20;;;13.60;58.00;;;;;;6175489;28;20058;-76
2023/04/14 19:14:45;;;;;;;7.38;3.25;;;13.60;58.50;;;;;;6164422;28;20063;-75
2023/04/14 19:17:47;;;;;;;5.57;2.70;;;13.50;57.70;;;;;;6163643;28;20047;-77
2023/04/14 19:20:49;;;;;;;8.75;2.53;;;13.40;57.50;;;;;;6171914;28;20058;-77
2023/04/14 19:23:53;;;;;;;6.20;2.45;;;13.40;58.40;;;;;;6175066;28;20039;-76
2023/04/14 19:26:55;;;;;;;7.40;2.17;;;13.30;58.60;;;;;;6174859;28;20551;-76
2023/04/14 19:29:59;;;;;;;5.28;2.42;;;13.20;58.30;;;;;;6174339;28;20436;-75
2023/04/14 19:33:01;;;;;;;7.57;2.55;;;13.10;58.90;;;;;;6174445;28;20065;-76
2023/04/14 19:36:03;;;;;;;7.03;2.17;;;13.00;59.30;;;;;;6175126;28;20061;-75
2023/04/14 19:39:05;;;;;;;6.18;2.03;;;12.90;60.40;;;;;;6187283;28;20066;-75
2023/04/14 19:42:07;;;;;;;5.85;2.15;;;12.80;61.40;;;;;;6192207;28;20150;-77
2023/04/14 19:45:11;;;;;;;4.95;1.90;;;12.70;62.10;;;;;;6182022;28;20061;-76
2023/04/14 19:48:13;;;;;;;7.72;2.65;;;12.60;64.30;;;;;;6180457;28;20058;-76
2023/04/14 19:51:15;;;;;;;6.22;2.60;;;12.50;63.30;;;;;;6171502;28;20065;-76
2023/04/14 19:54:17;;;;;;;5.32;1.90;;;12.50;63.90;;;;;;6171748;28;20415;-77
2023/04/14 19:57:20;;;;;;;5.55;2.17;;;12.40;64.60;;;;;;6174751;28;20053;-74
2023/04/14 20:00:24;;;;;;;6.18;1.83;;;12.40;65.60;;;;;;6174240;28;20055;-74
2023/04/14 20:03:26;;;;;;;;;;;12.30;65.40;;;;;;6176463;28;20069;-75
2023/04/14 20:06:28;;;;;;;4.40;1.45;;;12.20;66.70;;;;;;6173727;28;19933;-75
2023/04/14 20:09:30;;;;;;;4.38;1.77;;;12.00;68.20;;;;;;6174914;28;20412;-75
2023/04/14 20:12:33;;;;;;;6.70;2.08;;;11.90;67.80;;;;;;6173396;28;20488;-75
2023/04/14 20:15:37;;;;;;;7.53;2.28;;;11.80;68.60;;;;;;6173811;28;20043;-75
2023/04/14 20:18:39;;;;;;;8.82;2.30;;;11.80;69.90;;;;;;6174886;28;20408;-76
2023/04/14 20:21:41;;;;;;;6.82;2.60;;;11.80;69.70;;;;;;6174848;28;20066;-75
2023/04/14 20:24:43;;;;;;;6.43;2.30;;;11.80;69.40;;;;;;6173114;28;20408;-78
2023/04/14 20:27:49;;;;;;;7.20;2.85;;;11.70;70.00;;;;;;6174135;28;20051;-76
2023/04/14 20:30:54;;;;;;;6.70;2.90;;;11.70;69.60;;;;;;6157869;28;20074;-77
2023/04/14 20:33:56;;;;;;;7.10;2.60;;;11.50;68.60;;;;;;6157339;28;20047;-75
2023/04/14 20:36:58;;;;;;;7.90;2.90;;;11.50;68.10;;;;;;6173726;28;20047;-75
2023/04/14 20:40:00;;;;;;;6.65;2.50;;;11.40;68.70;;;;;;6173615;28;20053;-76
2023/04/14 20:43:03;;;;;;;7.20;2.33;;;11.50;67.90;;;;;;6173756;28;20055;-77
2023/04/14 20:46:06;;;;;;;8.38;2.75;;;11.30;69.30;;;;;;6149911;28;20055;-78
2023/04/14 20:49:08;;;;;;;7.00;2.55;;;11.30;70.40;;;;;;6149539;29;20054;-74
2023/04/14 20:52:10;;;;;;;10.07;2.60;;;11.20;71.00;;;;;;6149305;29;20134;-75
2023/04/14 20:55:13;;;;;;;6.13;2.55;;;11.20;71.70;;;;;;6163372;28;20055;-76
2023/04/14 20:58:15;;;;;;;8.32;2.90;;;11.00;69.90;;;;;;6163472;28;20059;-75
2023/04/14 21:01:18;;;;;;;5.18;2.25;;;11.00;70.00;;;;;;6149245;28;20047;-77
2023/04/14 21:04:20;;;;;;;7.93;2.80;;;11.00;71.20;;;;;;6157229;28;20780;-77
2023/04/14 21:07:22;;;;;;;5.97;2.70;;;10.90;70.90;;;;;;6171558;28;20077;-75
2023/04/14 21:10:24;;;;;;;5.25;2.47;;;10.90;71.00;;;;;;6170128;28;20042;-77
2023/04/14 21:13:26;;;;;;;8.98;2.63;;;10.90;72.30;;;;;;6169979;28;20065;-74
2023/04/14 21:16:30;;;;;;;7.13;2.88;;;10.90;72.60;;;;;;6149127;29;20051;-75
2023/04/14 21:19:31;;;;;;;8.18;2.65;;;10.80;73.30;;;;;;6149074;29;20055;-75
2023/04/14 21:22:34;;;;;;;5.90;2.00;;;10.70;73.40;;;;;;6150252;28;20043;-76
2023/04/14 21:25:37;;;;;;;6.50;2.53;;;10.60;74.30;;;;;;6167906;28;20195;-74
2023/04/14 21:28:40;;;;;;;5.45;1.90;;;10.50;74.50;;;;;;6156964;28;20042;-75
2023/04/14 21:31:43;;;;;;;5.63;2.08;;;10.10;75.00;;;;;;6179273;28;20074;-77
2023/04/14 21:34:45;;;;;;;7.57;2.65;;;9.50;73.90;;;;;;6194550;28;20137;-76
2023/04/14 21:37:47;;;;;;;9.10;3.75;;;9.40;75.40;;;;;;6180486;28;20474;-78
2023/04/14 21:40:50;;;;;;;6.78;3.72;;;9.60;75.30;;;;;;6179131;28;20046;-76
2023/04/14 21:43:52;;;;;;;8.13;2.63;;;9.70;75.70;;;;;;6192271;28;20050;-77
2023/04/14 21:46:55;;;;;;;8.30;2.75;;;9.80;76.30;;;;;;6198362;28;20047;-77
2023/04/14 21:49:57;;;;;;;7.97;2.67;;;9.80;76.40;;;;;;6195752;28;20049;-78
2023/04/14 21:53:00;;;;;;;6.35;2.80;;;9.90;77.10;;;;;;6197556;28;20058;-76
2023/04/14 21:56:03;;;;;;;9.55;2.40;;;9.90;77.10;;;;;;6175450;28;20102;-79
2023/04/14 21:59:07;;;;;;;6.57;2.67;;;9.90;77.50;;;;;;6180964;28;20056;-77
